| time (UTC) | temp F | wind direction | speed MPH | gust MPH | rain 1hr in | rain 24hr in | rain mn in | humidity % | barometer mb |
| 20260831102518 | 52 | 243 | 1.0 | 2.0 | 0.00 | 0.02 | 0.00 | 95 | 1012.8 |
| 20260831101520 | 52 | 337 | 0.0 | 2.0 | 0.00 | 0.02 | 0.00 | 95 | 1012.8 |
| 20260831100516 | 52 | 223 | 1.0 | 2.0 | 0.00 | 0.02 | 0.00 | 95 | 1013.0 |
| 20260831095516 | 52 | 331 | 1.0 | 3.0 | 0.00 | 0.02 | 0.00 | 95 | 1013.1 |
| 20260831094519 | 53 | 207 | 2.0 | 3.0 | 0.00 | 0.02 | 0.00 | 95 | 1013.1 |
| 20260831093519 | 53 | 217 | 2.0 | 3.0 | 0.00 | 0.02 | 0.00 | 95 | 1013.1 |
| 20260831092540 | 53 | 208 | 1.0 | 3.0 | 0.00 | 0.02 | 0.00 | 95 | 1013.1 |
| 20260831091557 | 53 | 201 | 2.0 | 2.0 | 0.00 | 0.02 | 0.00 | 95 | 1013.1 |
| 20260831090517 | 53 | 204 | 0.0 | 2.0 | 0.00 | 0.02 | 0.00 | 95 | 1013.2 |
| 20260831085517 | 53 | 211 | 1.0 | 2.0 | 0.00 | 0.02 | 0.00 | 95 | 1013.3 |
| 20260831084522 | 53 | 214 | 2.0 | 3.0 | 0.00 | 0.02 | 0.00 | 95 | 1013.4 |
| 20260831083520 | 53 | 219 | 1.0 | 2.0 | 0.00 | 0.02 | 0.00 | 95 | 1013.4 |
| 20260831082517 | 53 | 231 | 0.0 | 1.0 | 0.00 | 0.02 | 0.00 | 95 | 1013.4 |
| 20260831081557 | 53 | 0.0 | 0.0 | 0.00 | 0.02 | 0.00 | 95 | 1013.4 | |
| 20260831080518 | 53 | 205 | 0.0 | 2.0 | 0.00 | 0.02 | 0.00 | 95 | 1013.3 |
| 20260831075518 | 53 | 203 | 1.0 | 3.0 | 0.00 | 0.02 | 0.00 | 95 | 1013.3 |
| 20260831074518 | 53 | 201 | 2.0 | 3.0 | 0.00 | 0.02 | 0.00 | 95 | 1013.3 |
| 20260831073540 | 53 | 276 | 1.0 | 1.0 | 0.00 | 0.02 | 0.00 | 95 | 1013.4 |
| 20260831072518 | 54 | 0.0 | 0.0 | 0.00 | 0.02 | 0.00 | 95 | 1013.5 | |
| 20260831071520 | 54 | 338 | 0.0 | 2.0 | 0.00 | 0.02 | 0.00 | 95 | 1013.5 |
| 20260831070539 | 54 | 297 | 0.0 | 1.0 | 0.00 | 0.02 | 0.00 | 95 | 1013.5 |
| 20260831065536 | 54 | 209 | 2.0 | 3.0 | 0.00 | 0.02 | 0.02 | 95 | 1013.6 |
| 20260831064519 | 54 | 227 | 2.0 | 4.0 | 0.00 | 0.02 | 0.02 | 95 | 1013.8 |
| 20260831063519 | 54 | 223 | 2.0 | 5.0 | 0.00 | 0.02 | 0.02 | 95 | 1013.8 |
| 20260831062521 | 54 | 215 | 2.0 | 4.0 | 0.00 | 0.02 | 0.02 | 95 | 1013.8 |
| 20260831061517 | 54 | 222 | 2.0 | 3.0 | 0.00 | 0.02 | 0.02 | 95 | 1013.7 |
| 20260831060517 | 54 | 217 | 2.0 | 4.0 | 0.00 | 0.02 | 0.02 | 95 | 1013.6 |
| 20260831055520 | 54 | 213 | 2.0 | 4.0 | 0.00 | 0.02 | 0.02 | 95 | 1013.6 |
| 20260831054539 | 54 | 224 | 1.0 | 3.0 | 0.00 | 0.02 | 0.02 | 95 | 1013.5 |
| 20260831053517 | 55 | 0.0 | 0.0 | 0.00 | 0.02 | 0.02 | 95 | 1013.5 | |
| 20260831052517 | 55 | 0.0 | 0.0 | 0.00 | 0.02 | 0.02 | 95 | 1013.5 | |
| 20260831051517 | 55 | 0.0 | 0.0 | 0.00 | 0.02 | 0.02 | 95 | 1013.5 | |
| 20260831050519 | 56 | 212 | 1.0 | 2.0 | 0.00 | 0.02 | 0.02 | 94 | 1013.4 |
| 20260831045518 | 56 | 210 | 1.0 | 3.0 | 0.00 | 0.02 | 0.02 | 93 | 1013.5 |
| 20260831044538 | 55 | 209 | 3.0 | 4.0 | 0.00 | 0.02 | 0.02 | 94 | 1013.5 |
| 20260831043539 | 55 | 205 | 2.0 | 4.0 | 0.00 | 0.02 | 0.02 | 95 | 1013.4 |
| 20260831042519 | 55 | 205 | 2.0 | 4.0 | 0.00 | 0.02 | 0.02 | 94 | 1013.5 |
| 20260831041518 | 55 | 205 | 2.0 | 3.0 | 0.00 | 0.02 | 0.02 | 95 | 1013.5 |
| 20260831040539 | 56 | 0.0 | 0.0 | 0.00 | 0.02 | 0.02 | 92 | 1013.5 | |
| 20260831035519 | 56 | 356 | 0.0 | 2.0 | 0.00 | 0.02 | 0.02 | 90 | 1013.4 |
| 20260831034519 | 57 | 345 | 1.0 | 3.0 | 0.00 | 0.02 | 0.02 | 89 | 1013.3 |
| 20260831033519 | 57 | 325 | 1.0 | 3.0 | 0.00 | 0.02 | 0.02 | 88 | 1013.1 |
| 20260831032518 | 57 | 300 | 1.0 | 3.0 | 0.00 | 0.02 | 0.02 | 90 | 1012.9 |
| 20260831031517 | 58 | 287 | 1.0 | 3.0 | 0.00 | 0.02 | 0.02 | 90 | 1012.8 |
| 20260831030517 | 58 | 288 | 1.0 | 2.0 | 0.00 | 0.02 | 0.02 | 88 | 1012.7 |
| 20260831025522 | 59 | 326 | 1.0 | 2.0 | 0.00 | 0.02 | 0.02 | 87 | 1012.7 |
| 20260831024520 | 59 | 0.0 | 0.0 | 0.00 | 0.02 | 0.02 | 85 | 1012.6 | |
| 20260831023519 | 59 | 227 | 1.0 | 2.0 | 0.00 | 0.02 | 0.02 | 85 | 1012.5 |
| 20260831022518 | 60 | 201 | 0.0 | 2.0 | 0.00 | 0.02 | 0.02 | 82 | 1012.5 |
| 20260831021518 | 61 | 216 | 1.0 | 2.0 | 0.00 | 0.02 | 0.02 | 81 | 1012.3 |
| 20260831020518 | 62 | 0.0 | 0.0 | 0.00 | 0.02 | 0.02 | 77 | 1012.3 | |
| 20260831015519 | 63 | 0.0 | 0.0 | 0.00 | 0.02 | 0.02 | 75 | 1012.2 | |
| 20260831014518 | 65 | 84 | 1.0 | 3.0 | 0.00 | 0.02 | 0.02 | 70 | 1012.2 |
| 20260831013519 | 64 | 50 | 0.0 | 0.0 | 0.00 | 0.02 | 0.02 | 71 | 1012.2 |
| 20260831012518 | 64 | 34 | 1.0 | 4.0 | 0.00 | 0.02 | 0.02 | 70 | 1012.1 |
| 20260831011520 | 65 | 243 | 0.0 | 4.0 | 0.00 | 0.02 | 0.02 | 68 | 1012.0 |
| 20260831010520 | 66 | 180 | 1.0 | 2.0 | 0.01 | 0.02 | 0.02 | 67 | 1011.9 |
| 20260831005519 | 66 | 293 | 0.0 | 3.0 | 0.01 | 0.02 | 0.02 | 65 | 1011.9 |
| 20260831004521 | 64 | 261 | 1.0 | 3.0 | 0.01 | 0.02 | 0.02 | 67 | 1011.9 |
| 20260831003520 | 63 | 215 | 1.0 | 3.0 | 0.01 | 0.02 | 0.02 | 70 | 1011.8 |
| 20260831002601 | 62 | 261 | 1.0 | 5.0 | 0.01 | 0.02 | 0.02 | 72 | 1011.8 |
| 20260831001521 | 63 | 310 | 1.0 | 4.0 | 0.01 | 0.02 | 0.02 | 70 | 1011.8 |
| 20260831000559 | 63 | 219 | 1.0 | 4.0 | 0.00 | 0.02 | 0.02 | 70 | 1011.9 |
| 20260830235540 | 63 | 262 | 1.0 | 5.0 | 0.00 | 0.02 | 0.02 | 69 | 1011.9 |
| 20260830234521 | 63 | 213 | 1.0 | 3.0 | 0.00 | 0.02 | 0.02 | 69 | 1012.0 |
| 20260830233517 | 64 | 273 | 1.0 | 6.0 | 0.00 | 0.02 | 0.02 | 68 | 1012.0 |
| 20260830232518 | 65 | 228 | 2.0 | 6.0 | 0.00 | 0.02 | 0.02 | 67 | 1011.8 |
| 20260830231519 | 65 | 233 | 3.0 | 8.0 | 0.00 | 0.02 | 0.02 | 67 | 1011.9 |
| 20260830230518 | 65 | 242 | 3.0 | 8.0 | 0.00 | 0.02 | 0.02 | 67 | 1011.9 |
| 20260830225518 | 64 | 234 | 3.0 | 5.0 | 0.00 | 0.02 | 0.02 | 69 | 1012.0 |
| 20260830224519 | 63 | 258 | 3.0 | 9.0 | 0.00 | 0.02 | 0.02 | 69 | 1012.1 |
| 20260830223520 | 62 | 212 | 1.0 | 5.0 | 0.00 | 0.02 | 0.02 | 75 | 1012.2 |
| 20260830222519 | 62 | 209 | 2.0 | 7.0 | 0.00 | 0.02 | 0.02 | 76 | 1012.3 |
| 20260830221541 | 64 | 178 | 2.0 | 5.0 | 0.00 | 0.02 | 0.02 | 74 | 1012.2 |
| 20260830220518 | 63 | 244 | 2.0 | 4.0 | 0.00 | 0.02 | 0.02 | 74 | 1012.3 |
| 20260830215519 | 62 | 237 | 2.0 | 8.0 | 0.00 | 0.02 | 0.02 | 74 | 1012.4 |
| 20260830214520 | 61 | 196 | 2.0 | 4.0 | 0.00 | 0.02 | 0.02 | 77 | 1012.5 |
| 20260830213640 | 60 | 252 | 4.0 | 7.0 | 0.00 | 0.02 | 0.02 | 79 | 1012.5 |
| 20260830212517 | 60 | 238 | 3.0 | 11.0 | 0.00 | 0.02 | 0.02 | 77 | 1012.6 |
| 20260830211516 | 60 | 238 | 3.0 | 7.0 | 0.00 | 0.02 | 0.02 | 79 | 1012.5 |
| 20260830210518 | 59 | 221 | 2.0 | 5.0 | 0.00 | 0.02 | 0.02 | 85 | 1012.6 |
| 20260830205520 | 57 | 249 | 2.0 | 6.0 | 0.00 | 0.02 | 0.02 | 88 | 1012.6 |
| 20260830204539 | 56 | 252 | 2.0 | 5.0 | 0.00 | 0.02 | 0.02 | 91 | 1012.7 |
| 20260830203518 | 57 | 283 | 2.0 | 4.0 | 0.00 | 0.02 | 0.02 | 90 | 1012.6 |
| 20260830202520 | 58 | 266 | 2.0 | 10.0 | 0.00 | 0.02 | 0.02 | 83 | 1012.5 |
| 20260830201538 | 58 | 239 | 2.0 | 6.0 | 0.00 | 0.02 | 0.02 | 84 | 1012.4 |
| 20260830200519 | 58 | 213 | 2.0 | 4.0 | 0.01 | 0.02 | 0.02 | 88 | 1012.5 |
| 20260830195518 | 57 | 237 | 3.0 | 6.0 | 0.01 | 0.02 | 0.02 | 87 | 1012.6 |
| 20260830194520 | 56 | 279 | 1.0 | 5.0 | 0.01 | 0.02 | 0.02 | 94 | 1012.7 |
| 20260830193531 | 55 | 300 | 2.0 | 3.0 | 0.01 | 0.02 | 0.02 | 96 | 1012.7 |
| 20260830192552 | 54 | 292 | 1.0 | 3.0 | 0.01 | 0.02 | 0.02 | 95 | 1012.8 |
| 20260830191532 | 54 | 214 | 1.0 | 3.0 | 0.01 | 0.02 | 0.02 | 96 | 1012.9 |
| 20260830190531 | 55 | 254 | 2.0 | 3.0 | 0.00 | 0.01 | 0.01 | 95 | 1012.9 |
| 20260830185552 | 55 | 300 | 2.0 | 3.0 | 0.00 | 0.01 | 0.01 | 94 | 1012.9 |
| 20260830184516 | 55 | 221 | 0.0 | 1.0 | 0.00 | 0.01 | 0.01 | 96 | 1012.9 |
| 20260830183516 | 54 | 250 | 1.0 | 2.0 | 0.00 | 0.01 | 0.01 | 96 | 1012.9 |
| 20260830182516 | 54 | 249 | 2.0 | 3.0 | 0.00 | 0.01 | 0.01 | 95 | 1013.0 |
| 20260830181557 | 54 | 239 | 1.0 | 3.0 | 0.00 | 0.01 | 0.01 | 95 | 1012.9 |
| 20260830180533 | 54 | 200 | 0.0 | 2.0 | 0.00 | 0.01 | 0.01 | 95 | 1012.9 |
| 20260830175616 | 54 | 209 | 1.0 | 2.0 | 0.00 | 0.01 | 0.01 | 95 | 1012.8 |
| 20260830174519 | 54 | 211 | 2.0 | 2.0 | 0.00 | 0.01 | 0.01 | 96 | 1012.8 |
| 20260830173518 | 54 | 210 | 1.0 | 2.0 | 0.00 | 0.01 | 0.01 | 96 | 1012.7 |
| 20260830172518 | 53 | 222 | 1.0 | 2.0 | 0.00 | 0.01 | 0.01 | 96 | 1012.6 |
| 20260830171518 | 53 | 211 | 1.0 | 3.0 | 0.00 | 0.01 | 0.01 | 96 | 1012.6 |
| 20260830170518 | 53 | 228 | 2.0 | 3.0 | 0.00 | 0.01 | 0.01 | 96 | 1012.6 |
| 20260830165518 | 53 | 208 | 2.0 | 3.0 | 0.00 | 0.01 | 0.01 | 96 | 1012.6 |
| 20260830164541 | 53 | 218 | 2.0 | 3.0 | 0.00 | 0.01 | 0.01 | 96 | 1012.6 |
| 20260830163539 | 53 | 225 | 2.0 | 3.0 | 0.00 | 0.01 | 0.01 | 96 | 1012.6 |
| 20260830162519 | 52 | 214 | 2.0 | 3.0 | 0.00 | 0.01 | 0.01 | 95 | 1012.6 |
| 20260830161519 | 52 | 214 | 2.0 | 3.0 | 0.00 | 0.01 | 0.01 | 95 | 1012.6 |
| 20260830160521 | 52 | 244 | 2.0 | 3.0 | 0.00 | 0.01 | 0.01 | 95 | 1012.5 |
| 20260830155521 | 52 | 224 | 1.0 | 2.0 | 0.00 | 0.01 | 0.01 | 95 | 1012.5 |
| 20260830154521 | 52 | 226 | 2.0 | 3.0 | 0.00 | 0.01 | 0.01 | 95 | 1012.5 |
| 20260830153520 | 52 | 229 | 2.0 | 3.0 | 0.00 | 0.01 | 0.01 | 95 | 1012.4 |
| 20260830152520 | 51 | 229 | 1.0 | 3.0 | 0.00 | 0.01 | 0.01 | 95 | 1012.4 |
| 20260830151522 | 51 | 218 | 1.0 | 2.0 | 0.00 | 0.01 | 0.01 | 95 | 1012.3 |
| 20260830150521 | 51 | 255 | 1.0 | 2.0 | 0.00 | 0.01 | 0.01 | 95 | 1012.3 |
| 20260830145522 | 51 | 247 | 1.0 | 2.0 | 0.01 | 0.01 | 0.01 | 95 | 1012.3 |
| 20260830144521 | 51 | 243 | 1.0 | 3.0 | 0.01 | 0.01 | 0.01 | 95 | 1012.2 |
| 20260830143521 | 51 | 254 | 1.0 | 2.0 | 0.01 | 0.01 | 0.01 | 95 | 1012.2 |
| 20260830142521 | 51 | 253 | 1.0 | 2.0 | 0.01 | 0.01 | 0.01 | 95 | 1012.1 |
| 20260830141523 | 51 | 259 | 2.0 | 3.0 | 0.01 | 0.01 | 0.01 | 95 | 1012.1 |
| 20260830140522 | 51 | 258 | 2.0 | 3.0 | 0.01 | 0.01 | 0.01 | 95 | 1012.0 |
| 20260830135543 | 51 | 242 | 2.0 | 3.0 | 0.00 | 0.00 | 0.00 | 95 | 1012.0 |
| 20260830134644 | 51 | 253 | 2.0 | 3.0 | 0.00 | 0.00 | 0.00 | 95 | 1012.0 |
| 20260830133523 | 51 | 218 | 2.0 | 2.0 | 0.00 | 0.00 | 0.00 | 95 | 1011.9 |
| 20260830132544 | 51 | 217 | 2.0 | 3.0 | 0.00 | 0.00 | 0.00 | 95 | 1011.9 |
| 20260830131524 | 52 | 250 | 1.0 | 3.0 | 0.00 | 0.00 | 0.00 | 95 | 1011.9 |
| 20260830130521 | 52 | 256 | 2.0 | 5.0 | 0.00 | 0.00 | 0.00 | 95 | 1011.9 |
| 20260830125523 | 52 | 213 | 2.0 | 2.0 | 0.00 | 0.00 | 0.00 | 95 | 1011.8 |
| 20260830124525 | 52 | 228 | 1.0 | 2.0 | 0.00 | 0.00 | 0.00 | 95 | 1011.8 |
| 20260830123543 | 52 | 243 | 1.0 | 2.0 | 0.00 | 0.00 | 0.00 | 95 | 1011.8 |
| 20260830122523 | 52 | 235 | 1.0 | 2.0 | 0.00 | 0.00 | 0.00 | 95 | 1011.7 |
| 20260830121523 | 52 | 240 | 1.0 | 2.0 | 0.00 | 0.00 | 0.00 | 95 | 1011.6 |
| 20260830120543 | 52 | 213 | 1.0 | 2.0 | 0.00 | 0.00 | 0.00 | 95 | 1011.6 |
| 20260830115523 | 52 | 241 | 1.0 | 2.0 | 0.00 | 0.00 | 0.00 | 95 | 1011.6 |
| 20260830114524 | 52 | 205 | 2.0 | 2.0 | 0.00 | 0.00 | 0.00 | 95 | 1011.6 |
| 20260830113524 | 52 | 244 | 1.0 | 2.0 | 0.00 | 0.00 | 0.00 | 95 | 1011.6 |
| 20260830112524 | 52 | 202 | 2.0 | 3.0 | 0.00 | 0.00 | 0.00 | 94 | 1011.6 |
| 20260830111524 | 53 | 219 | 1.0 | 3.0 | 0.00 | 0.00 | 0.00 | 94 | 1011.6 |
| 20260830110519 | 53 | 197 | 2.0 | 3.0 | 0.00 | 0.00 | 0.00 | 93 | 1011.6 |
| 20260830105518 | 53 | 213 | 2.0 | 3.0 | 0.00 | 0.00 | 0.00 | 93 | 1011.5 |
| 20260830104521 | 53 | 205 | 2.0 | 3.0 | 0.00 | 0.00 | 0.00 | 93 | 1011.5 |
| 20260830103521 | 53 | 202 | 2.0 | 3.0 | 0.00 | 0.00 | 0.00 | 92 | 1011.4 |